Marine Rouge — JG5115 — position and weather

sailwx.info

Track history (hours):
 
Tides and Currents Weather Stations Pressure Air Temp Water Temp Dewpoint Dewpoint Depression Visibility Wind Speed Wind Dir Waves Ship Positions

Marine Rouge

Last reported at 2014-Dec-18 01:34 UTC. Time now 2014-Dec-18 02:30 UTC.
Position N 35°27' E 139°39'.

Length 52 m; draft 2.8 m.

Type: Passenger vessel. MMSI: 431000518.

Date/timePositionNaut miles runAvg speedWind from/ knotsBaromVisibWave heightAir tempDewpointWater temp
2014-Dec-18 01:34N 35°27' E 139°39'0 0.0
2014-Dec-18 00:34N 35°27' E 139°39'0 0.0
2014-Dec-17 12:04N 35°27' E 139°39'1 1.9
2014-Dec-17 11:33N 35°28' E 139°39'1 0.9
2014-Dec-17 10:33N 35°28' E 139°40'1 1.4
2014-Dec-17 09:33N 35°27' E 139°39'0 0.0
2014-Dec-17 08:33N 35°27' E 139°39'1 1.1
2014-Dec-17 07:33N 35°27' E 139°40'1 1.1
2014-Dec-17 06:33N 35°27' E 139°39'0 0.1
2014-Dec-17 05:33N 35°27' E 139°39'0 0.1
2014-Dec-17 04:33N 35°27' E 139°39'1 1.2
2014-Dec-17 03:33N 35°27' E 139°40'1 1.2
2014-Dec-17 02:33N 35°27' E 139°39'0 0.0
2014-Dec-17 01:33N 35°27' E 139°39'0 0.0
2014-Dec-17 00:33N 35°27' E 139°39'1 0.1
2014-Dec-16 11:33N 35°28' E 139°39'4 3.6
2014-Dec-16 10:33N 35°27' E 139°43'3 3.3
2014-Dec-16 09:33N 35°27' E 139°39'0 0.0
2014-Dec-16 08:33N 35°27' E 139°39'1 0.6
2014-Dec-16 07:34N 35°27' E 139°39'1 0.6
2014-Dec-16 06:33N 35°27' E 139°39'0 0.0
2014-Dec-16 05:33N 35°27' E 139°39'0 0.0
2014-Dec-16 04:33N 35°27' E 139°39'1 0.6
2014-Dec-16 03:32N 35°27' E 139°39'1 0.6
2014-Dec-16 02:33N 35°27' E 139°39'0 0.0
2014-Dec-16 01:33N 35°27' E 139°39'1 0.0
2014-Dec-15 12:33N 35°27' E 139°39'0 0.3
2014-Dec-15 11:33N 35°28' E 139°39'0 0.3
2014-Dec-15 10:33N 35°27' E 139°39'1 0.6
2014-Dec-15 09:33N 35°27' E 139°39'0 0.0
2014-Dec-15 08:33N 35°27' E 139°39'1 0.6
2014-Dec-15 07:33N 35°27' E 139°39'1 0.6
2014-Dec-15 06:33N 35°27' E 139°39'0 0.1
2014-Dec-15 05:33N 35°27' E 139°39'0 0.1
2014-Dec-15 04:33N 35°27' E 139°39'1 0.5
2014-Dec-15 03:33N 35°27' E 139°39'1 0.5
2014-Dec-15 02:33N 35°27' E 139°39'0 0.0
2014-Dec-15 01:33N 35°27' E 139°39'0 0.0
2014-Dec-15 00:33N 35°27' E 139°39'0 0.0
2014-Dec-14 12:27N 35°27' E 139°39'1 1.5
2014-Dec-14 11:34N 35°28' E 139°40'1 1.5
2014-Dec-14 10:33N 35°27' E 139°39'1 0.5
2014-Dec-14 09:33N 35°27' E 139°39'1 1.1
2014-Dec-14 08:33N 35°28' E 139°40'1 1.1
2014-Dec-14 07:33N 35°27' E 139°39'1 0.5
2014-Dec-14 06:33N 35°27' E 139°39'0 0.1
2014-Dec-14 05:34N 35°27' E 139°39'0 0.1
2014-Dec-14 04:33N 35°27' E 139°39'4 4.5
2014-Dec-14 03:33N 35°27' E 139°45'4 4.5
2014-Dec-14 02:33N 35°27' E 139°39'0 0.0
2014-Dec-14 01:33N 35°27' E 139°39'0 0.0
2014-Dec-14 00:33N 35°27' E 139°39'1 0.0
2014-Dec-13 12:33N 35°27' E 139°39'1 1.3
2014-Dec-13 11:33N 35°28' E 139°40'1 1.3
2014-Dec-13 10:33N 35°27' E 139°39'1 0.5
2014-Dec-13 09:33N 35°27' E 139°39'0 0.0
2014-Dec-13 08:34N 35°27' E 139°39'1 0.5
2014-Dec-13 07:33N 35°27' E 139°39'1 0.5
2014-Dec-13 06:33N 35°27' E 139°39'0 0.1
2014-Dec-13 05:34N 35°27' E 139°39'0 0.1
2014-Dec-13 04:33N 35°27' E 139°39'1 0.7
2014-Dec-13 03:33N 35°27' E 139°39'1 0.7
2014-Dec-13 02:33N 35°27' E 139°39'0 0.0
2014-Dec-13 01:34N 35°27' E 139°39'0 0.0
2014-Dec-13 00:34N 35°27' E 139°39'0 0.0
2014-Dec-12 12:33N 35°27' E 139°39'1 0.7
2014-Dec-12 11:33N 35°28' E 139°40'1 0.7
2014-Dec-12 10:33N 35°27' E 139°39'1 0.6
2014-Dec-12 09:33N 35°27' E 139°39'0 0.4
2014-Dec-12 08:33N 35°27' E 139°39'0 0.4
2014-Dec-12 07:33N 35°28' E 139°39'1 0.8
2014-Dec-12 06:33N 35°27' E 139°39'0 0.1
2014-Dec-12 05:33N 35°27' E 139°39'0 0.1
2014-Dec-12 04:34N 35°27' E 139°39'1 0.7
2014-Dec-12 03:33N 35°27' E 139°39'1 0.7
2014-Dec-12 02:33N 35°27' E 139°39'0 0.0
2014-Dec-12 01:33N 35°27' E 139°39'0 0.0
2014-Dec-12 00:33N 35°27' E 139°39'0 0.0
2014-Dec-11 12:33N 35°27' E 139°39'1 0.8
2014-Dec-11 11:34N 35°28' E 139°39'0 0.4
2014-Dec-11 10:33N 35°27' E 139°39'1 0.6
2014-Dec-11 09:33N 35°27' E 139°39'0 0.0
2014-Dec-11 08:33N 35°27' E 139°39'2 1.6
2014-Dec-11 07:33N 35°27' E 139°41'2 1.6
2014-Dec-11 06:33N 35°27' E 139°39'0 0.1
2014-Dec-11 05:34N 35°27' E 139°39'0 0.1
2014-Dec-11 04:33N 35°27' E 139°39'1 0.6
2014-Dec-11 03:34N 35°27' E 139°39'1 0.6
2014-Dec-11 02:33N 35°27' E 139°39'0 0.0
2014-Dec-11 01:33N 35°27' E 139°39'0 0.0
2014-Dec-11 00:34N 35°27' E 139°39'1 0.0
2014-Dec-10 12:34N 35°27' E 139°39'2 1.6
2014-Dec-10 11:33N 35°28' E 139°40'2 1.6
2014-Dec-10 10:33N 35°27' E 139°39'1 0.5
2014-Dec-10 09:33N 35°27' E 139°39'0 0.0
2014-Dec-10 08:33N 35°27' E 139°39'3 2.8
2014-Dec-10 07:33N 35°28' E 139°42'3 2.8
2014-Dec-10 06:33N 35°27' E 139°39'0 0.1
2014-Dec-10 05:34N 35°27' E 139°39'1 0.6
2014-Dec-10 04:33N 35°27' E 139°39'1 0.5
2014-Dec-10 03:33N 35°27' E 139°39'1 0.6
2014-Dec-10 02:33N 35°27' E 139°39'0 0.0
2014-Dec-10 01:33N 35°27' E 139°39'0 0.0
2014-Dec-10 00:33N 35°27' E 139°39'1 0.1
2014-Dec-09 11:33N 35°27' E 139°38'3 3.5
2014-Dec-09 10:33N 35°28' E 139°43'3 2.8
2014-Dec-09 09:33N 35°27' E 139°39'1 1.0
2014-Dec-09 08:33N 35°28' E 139°40'0 0.4
2014-Dec-09 07:33N 35°27' E 139°40'1 0.8
2014-Dec-09 06:33N 35°27' E 139°39'0 0.1
2014-Dec-09 05:34N 35°27' E 139°39'0 0.1
2014-Dec-09 04:33N 35°27' E 139°39'1 0.5
2014-Dec-09 03:34N 35°27' E 139°39'1 0.5
2014-Dec-09 02:33N 35°27' E 139°39'0 0.0
2014-Dec-09 01:33N 35°27' E 139°39'0 0.0
2014-Dec-09 00:33N 35°27' E 139°39'0 0.0
2014-Dec-08 12:27N 35°27' E 139°39'1 0.9
2014-Dec-08 11:33N 35°28' E 139°39'0 0.3
2014-Dec-08 10:33N 35°27' E 139°39'1 0.6
2014-Dec-08 09:33N 35°27' E 139°39'0 0.0
2014-Dec-08 08:33N 35°27' E 139°39'3 2.8
2014-Dec-08 07:33N 35°28' E 139°42'3 2.8
2014-Dec-08 06:34N 35°27' E 139°39'0 0.1
2014-Dec-08 05:33N 35°27' E 139°39'0 0.1
2014-Dec-08 04:33N 35°27' E 139°39'1 0.6
2014-Dec-08 03:34N 35°27' E 139°39'1 0.6
2014-Dec-08 02:34N 35°27' E 139°39'  
Track history (hours):
 
Tides and Currents Weather Stations Pressure Air Temp Water Temp Dewpoint Dewpoint Depression Visibility Wind Speed Wind Dir Waves Ship Positions

Marine Rouge

Last reported at 2014-Dec-18 01:34 UTC. Time now 2014-Dec-18 02:30 UTC.
Position N 35°27' E 139°39'.

Length 52 m; draft 2.8 m.

Type: Passenger vessel. MMSI: 431000518.

Date/timePositionNaut miles runAvg speedWind from/ knotsBaromVisibWave heightAir tempDewpointWater temp
2014-Dec-18 01:34N 35°27' E 139°39'0 0.0
2014-Dec-18 00:34N 35°27' E 139°39'0 0.0
2014-Dec-17 12:04N 35°27' E 139°39'1 1.9
2014-Dec-17 11:33N 35°28' E 139°39'1 0.9
2014-Dec-17 10:33N 35°28' E 139°40'1 1.4
2014-Dec-17 09:33N 35°27' E 139°39'0 0.0
2014-Dec-17 08:33N 35°27' E 139°39'1 1.1
2014-Dec-17 07:33N 35°27' E 139°40'1 1.1
2014-Dec-17 06:33N 35°27' E 139°39'0 0.1
2014-Dec-17 05:33N 35°27' E 139°39'0 0.1
2014-Dec-17 04:33N 35°27' E 139°39'1 1.2
2014-Dec-17 03:33N 35°27' E 139°40'1 1.2
2014-Dec-17 02:33N 35°27' E 139°39'0 0.0
2014-Dec-17 01:33N 35°27' E 139°39'0 0.0
2014-Dec-17 00:33N 35°27' E 139°39'1 0.1
2014-Dec-16 11:33N 35°28' E 139°39'4 3.6
2014-Dec-16 10:33N 35°27' E 139°43'3 3.3
2014-Dec-16 09:33N 35°27' E 139°39'0 0.0
2014-Dec-16 08:33N 35°27' E 139°39'1 0.6
2014-Dec-16 07:34N 35°27' E 139°39'1 0.6
2014-Dec-16 06:33N 35°27' E 139°39'0 0.0
2014-Dec-16 05:33N 35°27' E 139°39'0 0.0
2014-Dec-16 04:33N 35°27' E 139°39'1 0.6
2014-Dec-16 03:32N 35°27' E 139°39'1 0.6
2014-Dec-16 02:33N 35°27' E 139°39'0 0.0
2014-Dec-16 01:33N 35°27' E 139°39'1 0.0
2014-Dec-15 12:33N 35°27' E 139°39'0 0.3
2014-Dec-15 11:33N 35°28' E 139°39'0 0.3
2014-Dec-15 10:33N 35°27' E 139°39'1 0.6
2014-Dec-15 09:33N 35°27' E 139°39'0 0.0
2014-Dec-15 08:33N 35°27' E 139°39'1 0.6
2014-Dec-15 07:33N 35°27' E 139°39'1 0.6
2014-Dec-15 06:33N 35°27' E 139°39'0 0.1
2014-Dec-15 05:33N 35°27' E 139°39'0 0.1
2014-Dec-15 04:33N 35°27' E 139°39'1 0.5
2014-Dec-15 03:33N 35°27' E 139°39'1 0.5
2014-Dec-15 02:33N 35°27' E 139°39'0 0.0
2014-Dec-15 01:33N 35°27' E 139°39'0 0.0
2014-Dec-15 00:33N 35°27' E 139°39'0 0.0
2014-Dec-14 12:27N 35°27' E 139°39'1 1.5
2014-Dec-14 11:34N 35°28' E 139°40'1 1.5
2014-Dec-14 10:33N 35°27' E 139°39'1 0.5
2014-Dec-14 09:33N 35°27' E 139°39'1 1.1
2014-Dec-14 08:33N 35°28' E 139°40'1 1.1
2014-Dec-14 07:33N 35°27' E 139°39'1 0.5
2014-Dec-14 06:33N 35°27' E 139°39'0 0.1
2014-Dec-14 05:34N 35°27' E 139°39'0 0.1
2014-Dec-14 04:33N 35°27' E 139°39'4 4.5
2014-Dec-14 03:33N 35°27' E 139°45'4 4.5
2014-Dec-14 02:33N 35°27' E 139°39'0 0.0
2014-Dec-14 01:33N 35°27' E 139°39'0 0.0
2014-Dec-14 00:33N 35°27' E 139°39'1 0.0
2014-Dec-13 12:33N 35°27' E 139°39'1 1.3
2014-Dec-13 11:33N 35°28' E 139°40'1 1.3
2014-Dec-13 10:33N 35°27' E 139°39'1 0.5
2014-Dec-13 09:33N 35°27' E 139°39'0 0.0
2014-Dec-13 08:34N 35°27' E 139°39'1 0.5
2014-Dec-13 07:33N 35°27' E 139°39'1 0.5
2014-Dec-13 06:33N 35°27' E 139°39'0 0.1
2014-Dec-13 05:34N 35°27' E 139°39'0 0.1
2014-Dec-13 04:33N 35°27' E 139°39'1 0.7
2014-Dec-13 03:33N 35°27' E 139°39'1 0.7
2014-Dec-13 02:33N 35°27' E 139°39'0 0.0
2014-Dec-13 01:34N 35°27' E 139°39'0 0.0
2014-Dec-13 00:34N 35°27' E 139°39'0 0.0
2014-Dec-12 12:33N 35°27' E 139°39'1 0.7
2014-Dec-12 11:33N 35°28' E 139°40'1 0.7
2014-Dec-12 10:33N 35°27' E 139°39'1 0.6
2014-Dec-12 09:33N 35°27' E 139°39'0 0.4
2014-Dec-12 08:33N 35°27' E 139°39'0 0.4
2014-Dec-12 07:33N 35°28' E 139°39'1 0.8
2014-Dec-12 06:33N 35°27' E 139°39'0 0.1
2014-Dec-12 05:33N 35°27' E 139°39'0 0.1
2014-Dec-12 04:34N 35°27' E 139°39'1 0.7
2014-Dec-12 03:33N 35°27' E 139°39'1 0.7
2014-Dec-12 02:33N 35°27' E 139°39'0 0.0
2014-Dec-12 01:33N 35°27' E 139°39'0 0.0
2014-Dec-12 00:33N 35°27' E 139°39'0 0.0
2014-Dec-11 12:33N 35°27' E 139°39'1 0.8
2014-Dec-11 11:34N 35°28' E 139°39'0 0.4
2014-Dec-11 10:33N 35°27' E 139°39'1 0.6
2014-Dec-11 09:33N 35°27' E 139°39'0 0.0
2014-Dec-11 08:33N 35°27' E 139°39'2 1.6
2014-Dec-11 07:33N 35°27' E 139°41'2 1.6
2014-Dec-11 06:33N 35°27' E 139°39'0 0.1
2014-Dec-11 05:34N 35°27' E 139°39'0 0.1
2014-Dec-11 04:33N 35°27' E 139°39'1 0.6
2014-Dec-11 03:34N 35°27' E 139°39'1 0.6
2014-Dec-11 02:33N 35°27' E 139°39'0 0.0
2014-Dec-11 01:33N 35°27' E 139°39'0 0.0
2014-Dec-11 00:34N 35°27' E 139°39'1 0.0
2014-Dec-10 12:34N 35°27' E 139°39'2 1.6
2014-Dec-10 11:33N 35°28' E 139°40'2 1.6
2014-Dec-10 10:33N 35°27' E 139°39'1 0.5
2014-Dec-10 09:33N 35°27' E 139°39'0 0.0
2014-Dec-10 08:33N 35°27' E 139°39'3 2.8
2014-Dec-10 07:33N 35°28' E 139°42'3 2.8
2014-Dec-10 06:33N 35°27' E 139°39'0 0.1
2014-Dec-10 05:34N 35°27' E 139°39'1 0.6
2014-Dec-10 04:33N 35°27' E 139°39'1 0.5
2014-Dec-10 03:33N 35°27' E 139°39'1 0.6
2014-Dec-10 02:33N 35°27' E 139°39'0 0.0
2014-Dec-10 01:33N 35°27' E 139°39'0 0.0
2014-Dec-10 00:33N 35°27' E 139°39'1 0.1
2014-Dec-09 11:33N 35°27' E 139°38'3 3.5
2014-Dec-09 10:33N 35°28' E 139°43'3 2.8
2014-Dec-09 09:33N 35°27' E 139°39'1 1.0
2014-Dec-09 08:33N 35°28' E 139°40'0 0.4
2014-Dec-09 07:33N 35°27' E 139°40'1 0.8
2014-Dec-09 06:33N 35°27' E 139°39'0 0.1
2014-Dec-09 05:34N 35°27' E 139°39'0 0.1
2014-Dec-09 04:33N 35°27' E 139°39'1 0.5
2014-Dec-09 03:34N 35°27' E 139°39'1 0.5
2014-Dec-09 02:33N 35°27' E 139°39'0 0.0
2014-Dec-09 01:33N 35°27' E 139°39'0 0.0
2014-Dec-09 00:33N 35°27' E 139°39'0 0.0
2014-Dec-08 12:27N 35°27' E 139°39'1 0.9
2014-Dec-08 11:33N 35°28' E 139°39'0 0.3
2014-Dec-08 10:33N 35°27' E 139°39'1 0.6
2014-Dec-08 09:33N 35°27' E 139°39'0 0.0
2014-Dec-08 08:33N 35°27' E 139°39'3 2.8
2014-Dec-08 07:33N 35°28' E 139°42'3 2.8
2014-Dec-08 06:34N 35°27' E 139°39'0 0.1
2014-Dec-08 05:33N 35°27' E 139°39'0 0.1
2014-Dec-08 04:33N 35°27' E 139°39'1 0.6
2014-Dec-08 03:34N 35°27' E 139°39'1 0.6
2014-Dec-08 02:34N 35°27' E 139°39'  

Dump ship's entire track history